createdAt,value
2022-10-08T00:01:29.025Z,12.42
2022-10-08T00:03:57.781Z,12.49
2022-10-08T00:06:28.118Z,12.57
2022-10-08T00:08:58.546Z,12.58
2022-10-08T00:11:29.683Z,12.50
2022-10-08T00:13:58.654Z,12.40
2022-10-08T00:16:29.536Z,12.45
2022-10-08T00:19:01.070Z,12.51
2022-10-08T00:21:31.485Z,12.42
2022-10-08T00:24:01.422Z,12.29
2022-10-08T00:26:32.727Z,12.36
2022-10-08T00:29:03.061Z,12.24
2022-10-08T00:31:33.113Z,12.12
2022-10-08T00:34:03.716Z,12.25
2022-10-08T00:36:33.107Z,12.40
2022-10-08T00:39:03.019Z,12.42
2022-10-08T00:41:34.385Z,12.50
2022-10-08T00:44:04.304Z,12.59
2022-10-08T00:46:36.659Z,12.78
2022-10-08T00:49:11.942Z,12.91
2022-10-08T00:51:44.109Z,12.92
2022-10-08T00:54:13.381Z,12.75
2022-10-08T00:56:43.263Z,12.51
2022-10-08T00:59:13.694Z,12.47
2022-10-08T01:01:43.463Z,12.66
2022-10-08T01:04:12.959Z,12.61
2022-10-08T01:06:50.493Z,12.56
2022-10-08T01:09:24.351Z,12.54
2022-10-08T01:12:00.246Z,12.44
2022-10-08T01:14:40.330Z,12.60
2022-10-08T01:17:17.855Z,12.52
2022-10-08T01:20:18.382Z,12.44
2022-10-08T01:23:12.114Z,12.48
2022-10-08T01:25:54.030Z,12.42
2022-10-08T01:28:29.663Z,12.56
2022-10-08T01:31:02.863Z,12.49
2022-10-08T01:33:34.725Z,12.64
2022-10-08T01:36:06.282Z,12.76
2022-10-08T01:38:41.055Z,12.71
2022-10-08T01:41:11.471Z,12.81
2022-10-08T01:43:45.018Z,12.58
2022-10-08T01:46:19.279Z,12.50
2022-10-08T01:48:50.200Z,12.43
2022-10-08T01:51:23.364Z,12.52
2022-10-08T01:53:53.213Z,12.59
2022-10-08T01:56:25.794Z,12.53
2022-10-08T01:59:00.044Z,12.48
2022-10-08T02:01:34.029Z,12.39
2022-10-08T02:04:19.672Z,12.17
2022-10-08T02:06:53.159Z,11.97
2022-10-08T02:09:23.345Z,12.08
2022-10-08T02:11:51.127Z,12.13
2022-10-08T02:14:22.068Z,12.23
2022-10-08T02:16:55.991Z,12.41
2022-10-08T02:19:34.521Z,12.56
2022-10-08T02:22:04.749Z,12.36
2022-10-08T02:24:38.746Z,12.49
2022-10-08T02:27:09.778Z,12.44
2022-10-08T02:29:42.735Z,12.48
2022-10-08T02:32:16.184Z,12.32
2022-10-08T02:34:50.343Z,12.27
2022-10-08T02:37:22.835Z,12.36
2022-10-08T02:39:55.904Z,12.32
2022-10-08T02:42:25.525Z,12.23
2022-10-08T02:45:00.769Z,12.21
2022-10-08T02:47:32.686Z,12.31
2022-10-08T02:50:04.740Z,12.54
2022-10-08T02:52:36.097Z,12.45
2022-10-08T02:55:08.691Z,12.39
2022-10-08T02:57:43.288Z,12.50
2022-10-08T03:00:14.181Z,12.47
2022-10-08T03:02:48.012Z,12.49
2022-10-08T03:05:19.639Z,12.43
2022-10-08T03:07:51.524Z,12.44
2022-10-08T03:10:19.887Z,12.57
2022-10-08T03:12:48.757Z,12.47
2022-10-08T03:15:18.201Z,12.65
2022-10-08T03:17:48.264Z,12.82
2022-10-08T03:20:16.128Z,12.80
2022-10-08T03:22:44.734Z,12.83
2022-10-08T03:25:12.681Z,12.78
2022-10-08T03:27:40.451Z,12.69
2022-10-08T03:30:09.386Z,12.71
2022-10-08T03:32:38.513Z,12.53
2022-10-08T03:35:06.631Z,12.57
2022-10-08T03:37:34.481Z,12.55
2022-10-08T03:40:02.297Z,12.57
2022-10-08T03:42:30.062Z,12.75
2022-10-08T03:44:57.792Z,12.87
2022-10-08T03:47:25.687Z,12.83
2022-10-08T03:49:54.965Z,12.97
2022-10-08T03:52:22.751Z,13.17
2022-10-08T03:54:50.473Z,13.21
2022-10-08T03:57:18.216Z,13.33
2022-10-08T03:59:45.951Z,13.20
2022-10-08T04:02:13.706Z,13.10
2022-10-08T04:04:41.498Z,13.25
2022-10-08T04:07:10.678Z,13.20
2022-10-08T04:09:38.431Z,13.31
2022-10-08T04:12:06.305Z,13.05
2022-10-08T04:14:34.121Z,12.99
2022-10-08T04:17:01.844Z,12.96
2022-10-08T04:19:29.561Z,13.02
2022-10-08T04:21:57.289Z,13.03
2022-10-08T04:24:26.414Z,12.95
2022-10-08T04:26:54.295Z,12.95
2022-10-08T04:29:22.067Z,13.15
2022-10-08T04:31:49.847Z,13.20
2022-10-08T04:34:18.372Z,13.19
2022-10-08T04:36:46.139Z,13.21
2022-10-08T04:39:13.863Z,13.09
2022-10-08T04:41:42.973Z,12.93
2022-10-08T04:44:10.764Z,12.84
2022-10-08T04:46:38.665Z,12.79
2022-10-08T04:49:06.539Z,12.91
2022-10-08T04:51:34.293Z,12.88
2022-10-08T04:54:02.807Z,13.12
2022-10-08T04:56:34.691Z,13.20
2022-10-08T04:59:04.922Z,13.38
2022-10-08T05:01:32.730Z,13.14
2022-10-08T05:04:00.860Z,13.09
2022-10-08T05:06:30.512Z,13.19
2022-10-08T05:09:02.461Z,13.11
2022-10-08T05:11:30.964Z,13.27
2022-10-08T05:13:59.821Z,13.47
2022-10-08T05:16:29.230Z,13.44
2022-10-08T05:18:57.481Z,13.51
2022-10-08T05:21:26.895Z,13.55
2022-10-08T05:23:55.643Z,13.55
2022-10-08T05:26:53.119Z,13.66
2022-10-08T05:29:13.709Z,13.74
2022-10-08T05:31:42.895Z,13.48
2022-10-08T05:34:10.890Z,13.50
2022-10-08T05:36:38.736Z,13.46
2022-10-08T05:39:07.329Z,13.22
2022-10-08T05:41:38.471Z,13.26
2022-10-08T05:44:07.447Z,13.25
2022-10-08T05:46:37.385Z,13.30
2022-10-08T05:49:09.220Z,13.39
2022-10-08T05:51:38.464Z,13.34
2022-10-08T05:54:06.394Z,13.44
2022-10-08T05:56:34.318Z,13.46
2022-10-08T05:59:02.063Z,13.55
2022-10-08T06:01:32.174Z,13.69
2022-10-08T06:04:05.674Z,13.78
2022-10-08T06:06:38.630Z,13.83
2022-10-08T06:09:08.058Z,13.65
2022-10-08T06:11:38.026Z,13.68
2022-10-08T06:14:07.146Z,13.53
2022-10-08T06:16:35.880Z,13.50
2022-10-08T06:19:06.643Z,13.54
2022-10-08T06:21:35.852Z,13.61
2022-10-08T06:24:07.545Z,13.65
2022-10-08T06:26:38.622Z,13.75
2022-10-08T06:29:07.296Z,13.77
2022-10-08T06:31:35.378Z,13.90
2022-10-08T06:34:04.862Z,14.07
2022-10-08T06:36:34.596Z,14.15
2022-10-08T06:39:04.529Z,14.08
2022-10-08T06:41:35.005Z,14.38
2022-10-08T06:44:03.995Z,14.43
2022-10-08T06:46:32.720Z,14.62
2022-10-08T06:49:01.744Z,14.40
2022-10-08T06:51:30.473Z,14.64
2022-10-08T06:54:06.636Z,14.87
2022-10-08T06:56:37.858Z,15.02
2022-10-08T06:59:06.199Z,15.04
2022-10-08T07:01:35.017Z,15.07
2022-10-08T07:04:06.921Z,15.15
2022-10-08T07:06:35.188Z,15.26
2022-10-08T07:09:03.415Z,15.32
2022-10-08T07:11:32.381Z,15.45
2022-10-08T07:14:01.903Z,15.58
2022-10-08T07:16:33.005Z,15.43
2022-10-08T07:19:01.364Z,15.43
2022-10-08T07:21:30.250Z,15.39
2022-10-08T07:24:00.146Z,15.43
2022-10-08T07:26:30.671Z,15.72
2022-10-08T07:29:02.425Z,15.83
2022-10-08T07:31:33.401Z,16.06
2022-10-08T07:34:02.985Z,16.19
2022-10-08T07:36:31.241Z,16.51
2022-10-08T07:39:03.830Z,16.27
2022-10-08T07:41:32.197Z,16.41
2022-10-08T07:44:03.035Z,16.44
2022-10-08T07:46:32.226Z,16.60
2022-10-08T07:49:01.485Z,16.65
2022-10-08T07:51:31.311Z,16.64
2022-10-08T07:54:03.743Z,16.63
2022-10-08T07:56:32.591Z,16.69
2022-10-08T07:59:03.049Z,16.79
2022-10-08T08:01:33.363Z,16.90
2022-10-08T08:04:03.271Z,16.92
2022-10-08T08:06:32.997Z,16.82
2022-10-08T08:09:02.111Z,16.67
2022-10-08T08:11:30.997Z,16.58
2022-10-08T08:13:58.979Z,16.79
2022-10-08T08:16:30.231Z,17.02
2022-10-08T08:19:01.140Z,17.00
2022-10-08T08:21:30.709Z,17.21
2022-10-08T08:24:03.401Z,17.25
2022-10-08T08:26:34.031Z,17.34
2022-10-08T08:29:04.113Z,17.41
2022-10-08T08:31:34.932Z,17.67
2022-10-08T08:34:05.602Z,17.91
2022-10-08T08:36:35.771Z,17.82
2022-10-08T08:39:05.355Z,17.71
2022-10-08T08:41:45.822Z,17.51
2022-10-08T08:44:19.761Z,17.47
2022-10-08T08:46:54.868Z,17.43
2022-10-08T08:49:29.378Z,17.52
2022-10-08T08:51:59.249Z,17.54
2022-10-08T08:54:27.336Z,17.48
2022-10-08T08:56:55.817Z,17.56
2022-10-08T08:59:29.385Z,17.70
2022-10-08T09:02:02.189Z,17.68
2022-10-08T09:04:45.046Z,17.76
2022-10-08T09:07:16.218Z,18.08
2022-10-08T09:09:48.976Z,18.14
2022-10-08T09:12:21.105Z,18.08
2022-10-08T09:14:53.959Z,18.31
2022-10-08T09:17:31.591Z,18.32
2022-10-08T09:20:00.534Z,18.33
2022-10-08T09:22:30.478Z,18.16
2022-10-08T09:25:00.834Z,18.02
2022-10-08T09:27:45.311Z,18.18
2022-10-08T09:30:32.785Z,17.96
2022-10-08T09:33:17.486Z,18.14
2022-10-08T09:35:50.443Z,18.08
2022-10-08T09:38:22.537Z,17.81
2022-10-08T09:41:05.694Z,18.02
2022-10-08T09:43:34.675Z,17.82
2022-10-08T09:46:11.571Z,17.83
2022-10-08T09:48:43.237Z,18.15
2022-10-08T09:51:16.296Z,18.22
2022-10-08T09:53:46.238Z,18.36
2022-10-08T09:56:15.916Z,17.99
2022-10-08T09:58:53.884Z,18.00
2022-10-08T10:01:22.450Z,18.00
2022-10-08T10:03:55.120Z,18.21
2022-10-08T10:06:28.108Z,18.38
2022-10-08T10:09:01.453Z,18.35
2022-10-08T10:11:36.485Z,18.25
2022-10-08T10:14:12.168Z,18.11
2022-10-08T10:16:43.846Z,17.87
2022-10-08T10:19:18.218Z,17.81
2022-10-08T10:21:54.911Z,17.62
2022-10-08T10:24:41.011Z,17.69
2022-10-08T10:27:13.211Z,17.51
2022-10-08T10:29:51.042Z,17.38
2022-10-08T10:32:23.806Z,17.20
2022-10-08T10:35:04.641Z,17.33
2022-10-08T10:37:41.550Z,17.41
2022-10-08T10:40:24.949Z,17.48
2022-10-08T10:42:59.465Z,17.46
2022-10-08T10:45:32.169Z,17.49
2022-10-08T10:48:01.092Z,17.37
2022-10-08T10:50:40.471Z,17.27
2022-10-08T10:53:17.347Z,17.19
2022-10-08T10:55:54.794Z,17.26
2022-10-08T10:58:45.265Z,17.28
2022-10-08T11:01:28.264Z,17.26
2022-10-08T11:04:04.360Z,17.01
2022-10-08T11:06:49.576Z,17.09
2022-10-08T11:09:28.384Z,17.22
2022-10-08T11:12:02.706Z,17.13
2022-10-08T11:14:42.600Z,17.02
2022-10-08T11:17:27.377Z,16.93
2022-10-08T11:20:04.451Z,16.99
2022-10-08T11:22:41.564Z,16.91
2022-10-08T11:25:22.046Z,16.97
2022-10-08T11:28:04.092Z,16.98
2022-10-08T11:30:41.711Z,16.88
2022-10-08T11:33:14.019Z,16.87
2022-10-08T11:35:51.101Z,16.86
2022-10-08T11:38:26.928Z,16.84
2022-10-08T11:40:57.610Z,16.68
2022-10-08T11:43:31.013Z,16.63
2022-10-08T11:46:22.982Z,16.67
2022-10-08T11:48:51.603Z,16.69
2022-10-08T11:51:31.778Z,16.54
2022-10-08T11:54:12.431Z,16.51
2022-10-08T11:56:43.026Z,16.40
2022-10-08T11:59:29.840Z,16.42
2022-10-08T12:01:59.445Z,16.36
2022-10-08T12:04:34.758Z,16.36
2022-10-08T12:07:18.436Z,16.40
2022-10-08T12:10:33.978Z,16.40
2022-10-08T12:13:27.686Z,16.37
2022-10-08T12:16:04.787Z,16.47
2022-10-08T12:18:43.812Z,16.36
2022-10-08T12:21:48.391Z,16.24
2022-10-08T12:24:52.649Z,16.23
2022-10-08T12:27:41.839Z,16.23
2022-10-08T12:30:13.881Z,16.43
2022-10-08T12:32:56.740Z,16.42
2022-10-08T12:35:28.618Z,16.56
2022-10-08T12:38:24.043Z,16.53
2022-10-08T12:41:03.531Z,16.47
2022-10-08T12:43:39.862Z,16.59
2022-10-08T12:46:18.727Z,16.53
2022-10-08T12:48:55.022Z,16.40
2022-10-08T12:51:30.553Z,16.38
2022-10-08T12:53:59.675Z,16.33
2022-10-08T12:56:30.390Z,16.30
2022-10-08T12:59:00.621Z,16.40
2022-10-08T13:01:30.385Z,16.33
2022-10-08T13:04:18.177Z,16.37
2022-10-08T13:06:46.425Z,16.32
2022-10-08T13:09:25.219Z,16.22
2022-10-08T13:11:57.141Z,16.17
2022-10-08T13:14:27.817Z,15.97
2022-10-08T13:16:57.962Z,15.80
2022-10-08T13:19:31.474Z,15.71
2022-10-08T13:22:01.370Z,15.63
2022-10-08T13:24:40.807Z,15.40
2022-10-08T13:27:24.312Z,15.29
2022-10-08T13:29:52.367Z,15.18
2022-10-08T13:32:24.179Z,15.12
2022-10-08T13:34:54.716Z,15.10
2022-10-08T13:37:29.038Z,15.07
2022-10-08T13:39:58.888Z,14.95
2022-10-08T13:42:30.141Z,14.82
2022-10-08T13:44:59.752Z,14.85
2022-10-08T13:47:29.583Z,14.86
2022-10-08T13:50:01.816Z,14.82
2022-10-08T13:52:32.404Z,14.82
2022-10-08T13:55:03.325Z,14.77
2022-10-08T13:57:31.298Z,14.72
2022-10-08T13:59:59.392Z,14.76
2022-10-08T14:02:28.737Z,14.76
2022-10-08T14:04:56.597Z,14.74
2022-10-08T14:07:28.830Z,14.68
2022-10-08T14:09:58.680Z,14.54
2022-10-08T14:12:30.173Z,14.57
2022-10-08T14:14:58.201Z,14.50
2022-10-08T14:17:26.288Z,14.40
2022-10-08T14:19:55.513Z,14.37
2022-10-08T14:22:23.759Z,14.29
2022-10-08T14:24:51.845Z,14.15
2022-10-08T14:27:19.666Z,14.15
2022-10-08T14:29:47.661Z,14.16
2022-10-08T14:32:15.534Z,14.20
2022-10-08T14:34:43.423Z,14.18
2022-10-08T14:37:12.940Z,14.12
2022-10-08T14:39:40.780Z,14.07
2022-10-08T14:42:08.756Z,14.11
2022-10-08T14:44:36.630Z,14.17
2022-10-08T14:47:04.578Z,14.07
2022-10-08T14:49:32.667Z,14.01
2022-10-08T14:52:00.603Z,13.93
2022-10-08T14:54:29.822Z,13.94
2022-10-08T14:56:57.811Z,13.89
2022-10-08T14:59:26.007Z,13.86
2022-10-08T15:01:54.020Z,13.78
2022-10-08T15:04:22.098Z,13.71
2022-10-08T15:06:50.126Z,13.69
2022-10-08T15:09:18.153Z,13.54
2022-10-08T15:11:47.437Z,13.45
2022-10-08T15:14:15.654Z,13.42
2022-10-08T15:16:43.962Z,13.43
2022-10-08T15:19:12.338Z,13.37
2022-10-08T15:21:40.296Z,13.37
2022-10-08T15:24:08.467Z,13.30
2022-10-08T15:26:36.492Z,13.22
2022-10-08T15:29:05.948Z,13.17
2022-10-08T15:31:34.239Z,13.22
2022-10-08T15:34:02.305Z,13.22
2022-10-08T15:36:32.517Z,13.29
2022-10-08T15:39:01.979Z,13.37
2022-10-08T15:41:31.864Z,13.27
2022-10-08T15:44:10.811Z,13.26
2022-10-08T15:46:38.990Z,13.23
2022-10-08T15:49:06.970Z,13.25
2022-10-08T15:51:35.098Z,13.29
2022-10-08T15:54:03.409Z,13.27
2022-10-08T15:56:31.848Z,13.33
2022-10-08T15:59:00.911Z,13.36
2022-10-08T16:01:31.132Z,13.30
2022-10-08T16:04:00.065Z,13.26
2022-10-08T16:06:30.170Z,13.12
2022-10-08T16:08:58.763Z,13.08
2022-10-08T16:11:28.774Z,13.06
2022-10-08T16:14:00.420Z,12.99
2022-10-08T16:16:28.874Z,12.99
2022-10-08T16:18:59.387Z,12.98
2022-10-08T16:21:29.294Z,13.02
2022-10-08T16:23:58.541Z,13.06
2022-10-08T16:26:28.867Z,13.13
2022-10-08T16:28:59.566Z,13.17
2022-10-08T16:31:29.690Z,13.22
2022-10-08T16:34:00.492Z,13.09
2022-10-08T16:36:29.811Z,13.15
2022-10-08T16:38:58.649Z,13.12
2022-10-08T16:41:28.203Z,13.15
2022-10-08T16:43:58.075Z,13.19
2022-10-08T16:46:28.410Z,13.19
2022-10-08T16:49:00.488Z,13.11
2022-10-08T16:51:30.792Z,13.03
2022-10-08T16:54:00.877Z,13.08
2022-10-08T16:56:30.755Z,13.10
2022-10-08T16:59:00.836Z,13.07
2022-10-08T17:01:29.294Z,13.07
2022-10-08T17:03:59.015Z,13.02
2022-10-08T17:06:28.002Z,13.01
2022-10-08T17:08:56.139Z,12.99
2022-10-08T17:11:23.981Z,12.97
2022-10-08T17:13:54.004Z,12.93
2022-10-08T17:16:24.027Z,12.95
2022-10-08T17:18:53.057Z,12.88
2022-10-08T17:21:23.415Z,12.95
2022-10-08T17:23:52.033Z,12.95
2022-10-08T17:26:21.970Z,12.92
2022-10-08T17:28:52.844Z,12.86
2022-10-08T17:31:24.280Z,12.79
2022-10-08T17:33:52.691Z,12.71
2022-10-08T17:36:23.748Z,12.74
2022-10-08T17:38:53.713Z,12.71
2022-10-08T17:41:23.091Z,12.71
2022-10-08T17:43:51.694Z,12.73
2022-10-08T17:46:21.101Z,12.70
2022-10-08T17:48:49.284Z,12.62
2022-10-08T17:51:18.744Z,12.61
2022-10-08T17:53:53.137Z,12.59
2022-10-08T17:56:21.843Z,12.58
2022-10-08T17:58:50.157Z,12.59
2022-10-08T18:01:19.712Z,12.59
2022-10-08T18:03:52.083Z,12.61
2022-10-08T18:06:20.182Z,12.61
2022-10-08T18:08:49.403Z,12.54
2022-10-08T18:11:18.027Z,12.56
2022-10-08T18:13:45.832Z,12.50
2022-10-08T18:16:16.011Z,12.53
2022-10-08T18:18:45.177Z,12.47
2022-10-08T18:21:15.087Z,12.50
2022-10-08T18:23:45.976Z,12.54
2022-10-08T18:26:19.021Z,12.55
2022-10-08T18:28:47.885Z,12.54
2022-10-08T18:31:17.276Z,12.58
2022-10-08T18:33:47.123Z,12.65
2022-10-08T18:36:17.179Z,12.64
2022-10-08T18:38:46.726Z,12.72
2022-10-08T18:41:18.053Z,12.65
2022-10-08T18:43:47.708Z,12.67
2022-10-08T18:46:17.002Z,12.62
2022-10-08T18:48:44.918Z,12.55
2022-10-08T18:51:16.707Z,12.58
2022-10-08T18:53:45.636Z,12.58
2022-10-08T18:56:15.986Z,12.59
2022-10-08T18:58:45.515Z,12.58
2022-10-08T19:01:19.552Z,12.57
2022-10-08T19:03:48.916Z,12.58
2022-10-08T19:06:18.010Z,12.48
2022-10-08T19:08:46.960Z,12.44
2022-10-08T19:11:16.553Z,12.46
2022-10-08T19:13:50.371Z,12.49
2022-10-08T19:16:18.536Z,12.43
2022-10-08T19:18:53.665Z,12.50
2022-10-08T19:21:24.992Z,12.51
2022-10-08T19:23:53.770Z,12.46
2022-10-08T19:26:22.988Z,12.39
2022-10-08T19:28:55.423Z,12.43
2022-10-08T19:31:25.903Z,12.47
2022-10-08T19:33:55.548Z,12.39
2022-10-08T19:36:25.237Z,12.35
2022-10-08T19:38:54.359Z,12.62
2022-10-08T19:41:24.819Z,12.57
2022-10-08T19:43:55.341Z,12.49
2022-10-08T19:46:23.929Z,12.50
2022-10-08T19:48:52.730Z,12.40
2022-10-08T19:51:21.188Z,12.33
2022-10-08T19:53:50.050Z,12.28
2022-10-08T19:56:18.840Z,12.29
2022-10-08T19:58:49.017Z,12.29
2022-10-08T20:01:20.449Z,12.28
2022-10-08T20:03:48.737Z,12.21
2022-10-08T20:06:23.238Z,12.13
2022-10-08T20:08:54.557Z,12.11
2022-10-08T20:11:22.531Z,12.10
2022-10-08T20:13:52.228Z,12.12
2022-10-08T20:16:23.597Z,12.09
2022-10-08T20:18:54.035Z,11.91
2022-10-08T20:21:23.384Z,12.11
2022-10-08T20:23:51.289Z,12.13
2022-10-08T20:26:21.622Z,12.07
2022-10-08T20:28:51.360Z,11.99
2022-10-08T20:31:23.000Z,11.92
2022-10-08T20:33:57.648Z,11.88
2022-10-08T20:36:26.294Z,11.91
2022-10-08T20:38:54.484Z,11.83
2022-10-08T20:41:28.075Z,11.81
2022-10-08T20:44:03.862Z,11.87
2022-10-08T20:46:37.351Z,11.91
2022-10-08T20:49:06.006Z,11.82
2022-10-08T20:51:34.693Z,11.95
2022-10-08T20:54:05.439Z,11.89
2022-10-08T20:56:39.315Z,11.87
2022-10-08T20:59:08.727Z,11.93
2022-10-08T21:01:39.576Z,11.82
2022-10-08T21:04:08.778Z,11.74
2022-10-08T21:06:39.301Z,11.67
2022-10-08T21:09:08.357Z,11.58
2022-10-08T21:11:37.899Z,11.52
2022-10-08T21:14:07.678Z,11.29
2022-10-08T21:16:39.700Z,11.26
2022-10-08T21:19:11.052Z,11.19
2022-10-08T21:21:39.441Z,11.17
2022-10-08T21:24:08.083Z,11.23
2022-10-08T21:26:37.912Z,11.30
2022-10-08T21:29:08.057Z,11.12
2022-10-08T21:31:39.296Z,11.21
2022-10-08T21:34:07.739Z,11.20
2022-10-08T21:36:37.439Z,11.14
2022-10-08T21:39:07.939Z,10.96
2022-10-08T21:41:37.516Z,10.85
2022-10-08T21:44:07.676Z,10.85
2022-10-08T21:46:39.421Z,10.89
2022-10-08T21:49:09.524Z,10.81
2022-10-08T21:51:37.952Z,10.87
2022-10-08T21:54:08.933Z,10.92
2022-10-08T21:56:39.608Z,10.99
2022-10-08T21:59:09.611Z,10.97
2022-10-08T22:01:41.471Z,11.02
2022-10-08T22:04:12.439Z,11.09
2022-10-08T22:06:42.373Z,10.99
2022-10-08T22:09:13.073Z,10.94
2022-10-08T22:11:41.307Z,10.88
2022-10-08T22:14:09.748Z,10.88
2022-10-08T22:16:39.774Z,10.97
2022-10-08T22:19:08.136Z,10.95
2022-10-08T22:21:36.727Z,11.02
2022-10-08T22:24:05.166Z,11.03
2022-10-08T22:26:35.373Z,10.96
2022-10-08T22:29:03.551Z,10.90
2022-10-08T22:31:31.449Z,10.76
2022-10-08T22:34:00.973Z,10.74
2022-10-08T22:36:30.806Z,10.68
2022-10-08T22:38:59.987Z,10.65
2022-10-08T22:41:29.946Z,10.57
2022-10-08T22:43:58.146Z,10.51
2022-10-08T22:46:27.981Z,10.44
2022-10-08T22:48:58.471Z,10.43
2022-10-08T22:51:28.535Z,10.43
2022-10-08T22:53:56.766Z,10.29
2022-10-08T22:56:26.342Z,10.21
2022-10-08T22:58:54.120Z,10.16
2022-10-08T23:01:23.522Z,10.19
2022-10-08T23:03:52.091Z,10.21
2022-10-08T23:06:22.282Z,10.23
2022-10-08T23:08:54.657Z,10.32
2022-10-08T23:11:22.645Z,10.38
2022-10-08T23:13:51.396Z,10.36
2022-10-08T23:16:19.253Z,10.33
2022-10-08T23:18:52.779Z,10.33
2022-10-08T23:21:20.487Z,10.25
2022-10-08T23:23:49.397Z,10.16
2022-10-08T23:26:19.245Z,9.95
2022-10-08T23:28:51.019Z,9.98
2022-10-08T23:31:20.789Z,10.01
2022-10-08T23:33:50.479Z,10.03
2022-10-08T23:36:20.136Z,9.95
2022-10-08T23:38:48.263Z,9.84
2022-10-08T23:41:16.089Z,9.81
2022-10-08T23:43:47.123Z,9.88
2022-10-08T23:46:18.014Z,10.21
2022-10-08T23:48:46.397Z,11.14
2022-10-08T23:51:15.392Z,11.66
2022-10-08T23:53:44.535Z,12.03
2022-10-08T23:56:13.882Z,12.26
2022-10-08T23:58:42.063Z,12.14
